Time,TemperatureF,DewpointF,PressureIn,WindDirection,WindDirectionDegrees,WindSpeedMPH,WindSpeedGustMPH,Humidity,HourlyPrecipIn,Conditions,Clouds,dailyrainin,SoftwareType,DateUTC
2013-02-08 00:04:00,40.3,39.8,29.81,East,90,6.3,-999.0,98,-99.99,,,0.00,Acu-Link.com,2013-02-08 05:04:00,
2013-02-08 00:19:00,40.1,39.6,29.81,ESE,112,5.8,-999.0,98,-99.99,,,0.00,Acu-Link.com,2013-02-08 05:19:00,
2013-02-08 00:34:00,40.1,39.6,29.80,NNE,22,3.2,-999.0,98,-99.99,,,0.00,Acu-Link.com,2013-02-08 05:34:00,
2013-02-08 00:49:00,39.9,39.4,29.80,North,0,0.0,-999.0,98,-99.99,,,0.00,Acu-Link.com,2013-02-08 05:49:00,
2013-02-08 01:05:00,39.6,39.1,29.79,ENE,67,5.3,-999.0,98,-99.99,,,0.00,Acu-Link.com,2013-02-08 06:05:00,
2013-02-08 01:20:00,39.4,38.9,29.78,East,90,3.7,-999.0,98,-99.99,,,0.00,Acu-Link.com,2013-02-08 06:20:00,
2013-02-08 01:35:00,39.4,38.9,29.77,ESE,112,4.2,-999.0,98,-99.99,,,0.00,Acu-Link.com,2013-02-08 06:35:00,
2013-02-08 01:51:00,39.4,38.9,29.77,NW,315,1.7,-999.0,98,-99.99,,,0.00,Acu-Link.com,2013-02-08 06:51:00,
2013-02-08 02:06:00,39.4,38.9,29.78,ESE,112,2.7,-999.0,98,-99.99,,,0.00,Acu-Link.com,2013-02-08 07:06:00,
2013-02-08 02:21:00,39.4,38.9,29.77,North,0,1.7,-999.0,98,-99.99,,,0.00,Acu-Link.com,2013-02-08 07:21:00,
2013-02-08 02:37:00,39.4,38.9,29.77,ESE,112,2.2,-999.0,98,-99.99,,,0.00,Acu-Link.com,2013-02-08 07:37:00,
2013-02-08 02:52:00,39.4,38.9,29.76,North,0,2.2,-999.0,98,-99.99,,,0.00,Acu-Link.com,2013-02-08 07:52:00,
2013-02-08 03:07:00,39.7,39.2,29.76,NW,315,2.2,-999.0,98,-99.99,,,0.00,Acu-Link.com,2013-02-08 08:07:00,
2013-02-08 03:22:00,39.7,39.2,29.75,NNW,337,2.7,-999.0,98,-99.99,,,0.00,Acu-Link.com,2013-02-08 08:22:00,
2013-02-08 03:38:00,39.7,39.2,29.76,WNW,292,1.7,-999.0,98,-99.99,,,0.00,Acu-Link.com,2013-02-08 08:38:00,
2013-02-08 03:53:00,39.7,39.2,29.75,WSW,247,1.7,-999.0,98,-99.99,,,0.00,Acu-Link.com,2013-02-08 08:53:00,
2013-02-08 04:08:00,39.7,39.2,29.75,WNW,292,2.2,-999.0,98,-99.99,,,0.00,Acu-Link.com,2013-02-08 09:08:00,
2013-02-08 04:23:00,39.7,39.2,29.75,West,270,0.0,-999.0,98,-99.99,,,0.00,Acu-Link.com,2013-02-08 09:23:00,
2013-02-08 04:39:00,39.7,39.2,29.74,NW,315,2.2,-999.0,98,-99.99,,,0.00,Acu-Link.com,2013-02-08 09:39:00,
2013-02-08 04:54:00,39.7,39.2,29.75,WNW,292,2.2,-999.0,98,-99.99,,,0.00,Acu-Link.com,2013-02-08 09:54:00,
2013-02-08 05:09:00,39.7,39.2,29.74,WNW,292,3.2,-999.0,98,-99.99,,,0.00,Acu-Link.com,2013-02-08 10:09:00,
2013-02-08 05:25:00,39.7,39.2,29.75,NW,315,2.7,-999.0,98,-99.99,,,0.00,Acu-Link.com,2013-02-08 10:25:00,
2013-02-08 05:40:00,39.7,39.2,29.73,NW,315,2.2,-999.0,98,-99.99,,,0.00,Acu-Link.com,2013-02-08 10:40:00,
2013-02-08 05:55:00,39.4,38.9,29.73,NW,315,2.7,-999.0,98,-99.99,,,0.00,Acu-Link.com,2013-02-08 10:55:00,
2013-02-08 06:11:00,38.7,38.2,29.74,WNW,292,2.7,-999.0,98,-99.99,,,0.00,Acu-Link.com,2013-02-08 11:11:00,
2013-02-08 06:26:00,38.7,38.2,29.74,WNW,292,2.2,-999.0,98,-99.99,,,0.00,Acu-Link.com,2013-02-08 11:26:00,
2013-02-08 06:41:00,38.5,38.0,29.73,West,270,3.2,-999.0,98,-99.99,,,0.00,Acu-Link.com,2013-02-08 11:41:00,
2013-02-08 06:57:00,38.3,37.8,29.73,WNW,292,4.2,-999.0,98,-99.99,,,0.00,Acu-Link.com,2013-02-08 11:57:00,
2013-02-08 07:12:00,37.9,37.4,29.74,West,270,2.2,-999.0,98,-99.99,,,0.00,Acu-Link.com,2013-02-08 12:12:00,
2013-02-08 07:27:00,37.9,37.4,29.75,West,270,2.7,-999.0,98,-99.99,,,0.00,Acu-Link.com,2013-02-08 12:27:00,
2013-02-08 07:42:00,38.5,38.0,29.75,West,270,0.0,-999.0,98,-99.99,,,0.00,Acu-Link.com,2013-02-08 12:42:00,
2013-02-08 07:58:00,39.6,39.1,29.76,WNW,292,2.7,-999.0,98,-99.99,,,0.00,Acu-Link.com,2013-02-08 12:58:00,
2013-02-08 08:13:00,40.8,40.3,29.76,WNW,292,3.2,-999.0,98,-99.99,,,0.00,Acu-Link.com,2013-02-08 13:13:00,
2013-02-08 08:28:00,42.1,41.6,29.76,WNW,292,2.2,-999.0,98,-99.99,,,0.00,Acu-Link.com,2013-02-08 13:28:00,
2013-02-08 08:43:00,42.8,42.3,29.77,NW,315,2.7,-999.0,98,-99.99,,,0.00,Acu-Link.com,2013-02-08 13:43:00,
2013-02-08 08:59:00,43.3,42.8,29.76,NNW,337,2.7,-999.0,98,-99.99,,,0.00,Acu-Link.com,2013-02-08 13:59:00,
2013-02-08 09:14:00,43.5,43.0,29.76,NW,315,1.1,-999.0,98,-99.99,,,0.00,Acu-Link.com,2013-02-08 14:14:00,
2013-02-08 09:29:00,44.6,44.1,29.77,WNW,292,3.7,-999.0,98,-99.99,,,0.00,Acu-Link.com,2013-02-08 14:29:00,
2013-02-08 09:45:00,44.4,43.9,29.77,WNW,292,4.2,-999.0,98,-99.99,,,0.00,Acu-Link.com,2013-02-08 14:45:00,
2013-02-08 10:00:00,45.7,45.2,29.76,NW,315,3.2,-999.0,98,-99.99,,,0.00,Acu-Link.com,2013-02-08 15:00:00,
2013-02-08 10:15:00,48.2,47.7,29.76,West,270,2.7,-999.0,98,-99.99,,,0.00,Acu-Link.com,2013-02-08 15:15:00,
2013-02-08 10:31:00,48.0,47.5,29.76,NNW,337,4.2,-999.0,98,-99.99,,,0.00,Acu-Link.com,2013-02-08 15:31:00,
2013-02-08 10:46:00,49.8,49.3,29.77,NW,315,4.7,-999.0,98,-99.99,,,0.00,Acu-Link.com,2013-02-08 15:46:00,
2013-02-08 11:01:00,48.4,47.9,29.77,NNW,337,2.7,-999.0,98,-99.99,,,0.00,Acu-Link.com,2013-02-08 16:01:00,
2013-02-08 11:17:00,48.9,48.4,29.77,NNW,337,3.7,-999.0,98,-99.99,,,0.00,Acu-Link.com,2013-02-08 16:17:00,
2013-02-08 11:32:00,49.5,49.0,29.78,NNW,337,3.7,-999.0,98,-99.99,,,0.00,Acu-Link.com,2013-02-08 16:32:00,
2013-02-08 11:47:00,50.2,49.7,29.78,NW,315,4.7,-999.0,98,-99.99,,,0.00,Acu-Link.com,2013-02-08 16:47:00,
2013-02-08 12:18:00,48.4,47.9,29.77,West,270,2.7,-999.0,98,-99.99,,,0.00,Acu-Link.com,2013-02-08 17:18:00,
2013-02-08 12:33:00,50.0,49.5,29.77,West,270,2.2,-999.0,98,-99.99,,,0.00,Acu-Link.com,2013-02-08 17:33:00,
2013-02-08 12:48:00,49.8,49.3,29.76,WSW,247,2.7,-999.0,98,-99.99,,,0.00,Acu-Link.com,2013-02-08 17:48:00,
2013-02-08 13:04:00,50.0,49.5,29.76,West,270,4.7,-999.0,98,-99.99,,,0.00,Acu-Link.com,2013-02-08 18:04:00,
2013-02-08 13:19:00,48.9,48.4,29.76,WNW,292,6.3,-999.0,98,-99.99,,,0.00,Acu-Link.com,2013-02-08 18:19:00,
2013-02-08 13:34:00,47.3,46.8,29.75,WNW,292,6.8,-999.0,98,-99.99,,,0.01,Acu-Link.com,2013-02-08 18:34:00,
2013-02-08 13:49:00,45.9,45.4,29.76,NW,315,8.3,-999.0,98,-99.99,,,0.01,Acu-Link.com,2013-02-08 18:49:00,
2013-02-08 14:05:00,45.5,45.0,29.76,NNW,337,7.3,-999.0,98,-99.99,,,0.01,Acu-Link.com,2013-02-08 19:05:00,
2013-02-08 14:20:00,45.3,44.8,29.76,NNW,337,7.8,-999.0,98,-99.99,,,0.01,Acu-Link.com,2013-02-08 19:20:00,
2013-02-08 14:35:00,45.0,44.5,29.76,NW,315,6.8,-999.0,98,-99.99,,,0.01,Acu-Link.com,2013-02-08 19:35:00,
2013-02-08 14:50:00,46.0,45.5,29.75,NW,315,6.8,-999.0,98,-99.99,,,0.01,Acu-Link.com,2013-02-08 19:50:00,
2013-02-08 15:06:00,46.9,46.4,29.75,WNW,292,8.3,-999.0,98,-99.99,,,0.01,Acu-Link.com,2013-02-08 20:06:00,
2013-02-08 15:21:00,47.3,46.8,29.75,NW,315,7.3,-999.0,98,-99.99,,,0.01,Acu-Link.com,2013-02-08 20:21:00,
2013-02-08 15:36:00,48.9,44.9,29.75,West,270,7.3,-999.0,86,-99.99,,,0.01,Acu-Link.com,2013-02-08 20:36:00,
2013-02-08 15:52:00,48.2,42.3,29.75,NW,315,6.8,-999.0,80,-99.99,,,0.01,Acu-Link.com,2013-02-08 20:52:00,
2013-02-08 16:07:00,48.4,41.9,29.76,NNW,337,9.9,-999.0,78,-99.99,,,0.01,Acu-Link.com,2013-02-08 21:07:00,
2013-02-08 16:22:00,46.9,39.7,29.77,NNW,337,7.3,-999.0,76,-99.99,,,0.01,Acu-Link.com,2013-02-08 21:22:00,
2013-02-08 16:38:00,46.4,38.6,29.78,NNW,337,10.4,-999.0,74,-99.99,,,0.01,Acu-Link.com,2013-02-08 21:38:00,
2013-02-08 16:53:00,45.1,39.3,29.78,WNW,292,5.8,-999.0,80,-99.99,,,0.01,Acu-Link.com,2013-02-08 21:53:00,
2013-02-08 17:08:00,44.1,39.0,29.79,NW,315,7.3,-999.0,82,-99.99,,,0.01,Acu-Link.com,2013-02-08 22:08:00,
2013-02-08 17:23:00,43.3,37.6,29.80,NW,315,8.3,-999.0,80,-99.99,,,0.01,Acu-Link.com,2013-02-08 22:23:00,
2013-02-08 17:39:00,42.6,36.2,29.81,WNW,292,7.3,-999.0,78,-99.99,,,0.01,Acu-Link.com,2013-02-08 22:39:00,
2013-02-08 17:54:00,41.7,36.6,29.81,NW,315,5.8,-999.0,82,-99.99,,,0.01,Acu-Link.com,2013-02-08 22:54:00,
2013-02-08 18:09:00,41.0,35.6,29.82,NW,315,6.3,-999.0,81,-99.99,,,0.01,Acu-Link.com,2013-02-08 23:09:00,
2013-02-08 18:25:00,40.6,34.0,29.83,NW,315,8.3,-999.0,77,-99.99,,,0.01,Acu-Link.com,2013-02-08 23:25:00,
2013-02-08 18:40:00,40.5,33.5,29.83,NW,315,6.3,-999.0,76,-99.99,,,0.01,Acu-Link.com,2013-02-08 23:40:00,
2013-02-08 18:55:00,39.6,33.6,29.84,NNW,337,7.3,-999.0,79,-99.99,,,0.01,Acu-Link.com,2013-02-08 23:55:00,
2013-02-08 19:10:00,39.0,35.8,29.85,NNW,337,7.8,-999.0,88,-99.99,,,0.01,Acu-Link.com,2013-02-09 00:10:00,
2013-02-08 19:25:00,37.4,36.9,29.85,NNW,337,10.4,-999.0,98,-99.99,,,0.01,Acu-Link.com,2013-02-09 00:25:00,
2013-02-08 19:41:00,36.3,35.8,29.86,NNW,337,7.3,-999.0,98,-99.99,,,0.01,Acu-Link.com,2013-02-09 00:41:00,
2013-02-08 19:56:00,35.2,34.7,29.86,NNW,337,6.8,-999.0,98,-99.99,,,0.01,Acu-Link.com,2013-02-09 00:56:00,
2013-02-08 20:11:00,34.7,34.2,29.87,NW,315,12.5,-999.0,98,-99.99,,,0.01,Acu-Link.com,2013-02-09 01:11:00,
2013-02-08 20:26:00,34.0,33.5,29.88,WNW,292,6.3,-999.0,98,-99.99,,,0.01,Acu-Link.com,2013-02-09 01:26:00,
2013-02-08 20:41:00,33.3,32.8,29.88,West,270,9.9,-999.0,98,-99.99,,,0.01,Acu-Link.com,2013-02-09 01:41:00,
2013-02-08 20:57:00,32.7,32.2,29.90,NW,315,8.9,-999.0,98,-99.99,,,0.01,Acu-Link.com,2013-02-09 01:57:00,
2013-02-08 21:12:00,32.5,32.0,29.89,NW,315,6.3,-999.0,98,-99.99,,,0.01,Acu-Link.com,2013-02-09 02:12:00,
2013-02-08 21:27:00,32.2,31.7,29.90,WNW,292,6.3,-999.0,98,-99.99,,,0.01,Acu-Link.com,2013-02-09 02:27:00,
2013-02-08 21:43:00,32.2,31.7,29.92,WNW,292,9.4,-999.0,98,-99.99,,,0.01,Acu-Link.com,2013-02-09 02:43:00,
2013-02-08 21:58:00,31.8,31.3,29.91,North,0,7.3,-999.0,98,-99.99,,,0.01,Acu-Link.com,2013-02-09 02:58:00,
2013-02-08 22:13:00,31.3,30.8,29.91,NW,315,11.4,-999.0,98,-99.99,,,0.01,Acu-Link.com,2013-02-09 03:13:00,
2013-02-08 22:29:00,31.1,30.6,29.91,North,0,9.9,-999.0,98,-99.99,,,0.01,Acu-Link.com,2013-02-09 03:29:00,
2013-02-08 22:44:00,31.1,30.6,29.93,NW,315,10.9,-999.0,98,-99.99,,,0.01,Acu-Link.com,2013-02-09 03:44:00,
2013-02-08 22:59:00,30.9,30.4,29.94,NNW,337,7.8,-999.0,98,-99.99,,,0.01,Acu-Link.com,2013-02-09 03:59:00,
2013-02-08 23:15:00,31.1,30.6,29.94,NNW,337,12.5,-999.0,98,-99.99,,,0.01,Acu-Link.com,2013-02-09 04:15:00,
2013-02-08 23:30:00,30.4,29.9,29.95,NW,315,6.8,-999.0,98,-99.99,,,0.01,Acu-Link.com,2013-02-09 04:30:00,
2013-02-08 23:45:00,30.2,29.7,29.95,WNW,292,9.9,-999.0,98,-99.99,,,0.01,Acu-Link.com,2013-02-09 04:45:00,